createdAt,value
2022-08-31T00:01:05.253Z,20.45
2022-08-31T00:03:54.276Z,20.42
2022-08-31T00:06:24.008Z,20.39
2022-08-31T00:08:56.384Z,20.39
2022-08-31T00:11:31.096Z,20.38
2022-08-31T00:14:05.920Z,20.37
2022-08-31T00:16:38.589Z,20.35
2022-08-31T00:19:11.799Z,20.33
2022-08-31T00:21:44.685Z,20.32
2022-08-31T00:24:14.611Z,20.30
2022-08-31T00:26:46.480Z,20.29
2022-08-31T00:29:17.140Z,20.25
2022-08-31T00:31:48.736Z,20.21
2022-08-31T00:34:19.441Z,20.20
2022-08-31T00:36:49.492Z,20.17
2022-08-31T00:39:19.569Z,20.14
2022-08-31T00:41:50.444Z,20.13
2022-08-31T00:44:20.142Z,20.12
2022-08-31T00:46:49.983Z,20.11
2022-08-31T00:49:26.732Z,20.10
2022-08-31T00:52:09.581Z,20.09
2022-08-31T00:54:55.400Z,20.07
2022-08-31T00:57:30.085Z,20.04
2022-08-31T01:00:01.030Z,20.04
2022-08-31T01:02:32.194Z,20.02
2022-08-31T01:05:02.529Z,20.02
2022-08-31T01:07:33.800Z,19.99
2022-08-31T01:10:05.861Z,19.98
2022-08-31T01:12:37.147Z,19.97
2022-08-31T01:15:08.232Z,19.98
2022-08-31T01:17:38.618Z,19.97
2022-08-31T01:20:19.481Z,19.95
2022-08-31T01:23:11.932Z,19.95
2022-08-31T01:25:43.890Z,19.94
2022-08-31T01:28:14.691Z,19.90
2022-08-31T01:31:05.069Z,19.90
2022-08-31T01:33:38.032Z,19.88
2022-08-31T01:36:11.160Z,19.87
2022-08-31T01:38:40.827Z,19.85
2022-08-31T01:41:12.992Z,19.85
2022-08-31T01:43:45.036Z,19.81
2022-08-31T01:46:15.917Z,19.76
2022-08-31T01:48:46.575Z,19.70
2022-08-31T01:51:18.045Z,19.65
2022-08-31T01:53:48.828Z,19.55
2022-08-31T01:56:23.686Z,19.46
2022-08-31T01:58:53.227Z,19.32
2022-08-31T02:01:45.736Z,19.26
2022-08-31T02:04:18.344Z,19.25
2022-08-31T02:06:51.749Z,19.24
2022-08-31T02:09:22.802Z,19.23
2022-08-31T02:11:53.505Z,19.20
2022-08-31T02:14:23.338Z,19.13
2022-08-31T02:16:53.966Z,19.11
2022-08-31T02:19:24.819Z,19.05
2022-08-31T02:21:56.521Z,19.01
2022-08-31T02:24:26.769Z,19.00
2022-08-31T02:26:59.730Z,19.02
2022-08-31T02:29:30.317Z,19.04
2022-08-31T02:32:02.428Z,19.07
2022-08-31T02:34:33.442Z,19.08
2022-08-31T02:37:04.656Z,19.05
2022-08-31T02:39:34.878Z,18.99
2022-08-31T02:42:06.220Z,18.88
2022-08-31T02:44:39.913Z,18.78
2022-08-31T02:47:10.150Z,18.69
2022-08-31T02:49:44.369Z,18.61
2022-08-31T02:52:16.001Z,18.55
2022-08-31T02:54:47.038Z,18.49
2022-08-31T02:57:18.808Z,18.41
2022-08-31T02:59:50.342Z,18.36
2022-08-31T03:02:22.944Z,18.31
2022-08-31T03:04:55.244Z,18.28
2022-08-31T03:07:27.800Z,18.26
2022-08-31T03:10:01.788Z,18.28
2022-08-31T03:12:34.019Z,18.27
2022-08-31T03:15:07.761Z,18.23
2022-08-31T03:17:37.633Z,18.18
2022-08-31T03:20:11.071Z,18.13
2022-08-31T03:22:45.643Z,18.08
2022-08-31T03:25:17.257Z,18.05
2022-08-31T03:27:47.442Z,18.05
2022-08-31T03:30:19.505Z,18.06
2022-08-31T03:32:55.065Z,18.02
2022-08-31T03:35:29.554Z,17.99
2022-08-31T03:38:03.039Z,17.97
2022-08-31T03:40:34.301Z,17.94
2022-08-31T03:43:04.887Z,17.92
2022-08-31T03:45:35.412Z,17.95
2022-08-31T03:48:12.009Z,17.92
2022-08-31T03:50:39.322Z,17.92
2022-08-31T03:53:12.937Z,17.91
2022-08-31T03:55:43.400Z,17.87
2022-08-31T03:58:13.919Z,17.86
2022-08-31T04:00:45.654Z,17.85
2022-08-31T04:03:17.451Z,17.87
2022-08-31T04:06:10.145Z,17.88
2022-08-31T04:08:58.118Z,17.88
2022-08-31T04:11:44.752Z,17.88
2022-08-31T04:14:26.702Z,17.93
2022-08-31T04:17:17.384Z,17.97
2022-08-31T04:19:49.442Z,18.02
2022-08-31T04:22:22.119Z,18.04
2022-08-31T04:24:56.024Z,18.08
2022-08-31T04:27:26.775Z,18.13
2022-08-31T04:29:57.175Z,18.19
2022-08-31T04:32:27.326Z,18.26
2022-08-31T04:34:59.526Z,18.34
2022-08-31T04:37:29.444Z,18.42
2022-08-31T04:40:03.654Z,18.47
2022-08-31T04:42:38.089Z,18.51
2022-08-31T04:45:09.341Z,18.56
2022-08-31T04:47:41.983Z,18.58
2022-08-31T04:50:13.543Z,18.61
2022-08-31T04:53:03.068Z,18.64
2022-08-31T04:55:20.380Z,18.69
2022-08-31T04:57:51.242Z,18.73
2022-08-31T05:00:22.405Z,18.77
2022-08-31T05:03:10.287Z,18.82
2022-08-31T05:05:41.195Z,18.87
2022-08-31T05:08:12.501Z,18.89
2022-08-31T05:10:42.883Z,18.91
2022-08-31T05:13:13.654Z,18.94
2022-08-31T05:15:43.892Z,18.99
2022-08-31T05:18:16.898Z,19.02
2022-08-31T05:20:49.492Z,19.09
2022-08-31T05:23:21.025Z,19.10
2022-08-31T05:25:50.980Z,19.12
2022-08-31T05:28:23.193Z,19.15
2022-08-31T05:30:53.355Z,19.18
2022-08-31T05:33:26.058Z,19.23
2022-08-31T05:35:56.851Z,19.26
2022-08-31T05:38:28.119Z,19.29
2022-08-31T05:41:00.793Z,19.32
2022-08-31T05:43:31.388Z,19.36
2022-08-31T05:46:05.646Z,19.39
2022-08-31T05:48:36.204Z,19.42
2022-08-31T05:51:08.504Z,19.46
2022-08-31T05:53:40.711Z,19.50
2022-08-31T05:56:23.382Z,19.56
2022-08-31T05:58:53.904Z,19.61
2022-08-31T06:01:34.290Z,19.67
2022-08-31T06:04:08.147Z,19.74
2022-08-31T06:06:38.968Z,19.78
2022-08-31T06:09:11.422Z,19.84
2022-08-31T06:11:42.027Z,19.86
2022-08-31T06:14:13.370Z,19.88
2022-08-31T06:16:45.092Z,19.90
2022-08-31T06:19:17.436Z,19.92
2022-08-31T06:21:51.500Z,19.94
2022-08-31T06:24:30.773Z,19.99
2022-08-31T06:27:01.517Z,20.03
2022-08-31T06:29:33.617Z,20.08
2022-08-31T06:32:08.237Z,20.12
2022-08-31T06:34:42.525Z,20.17
2022-08-31T06:37:21.261Z,20.21
2022-08-31T06:39:54.391Z,20.25
2022-08-31T06:42:29.528Z,20.37
2022-08-31T06:45:07.590Z,20.37
2022-08-31T06:47:40.122Z,20.40
2022-08-31T06:50:13.655Z,20.46
2022-08-31T06:52:45.250Z,20.50
2022-08-31T06:55:35.353Z,20.51
2022-08-31T06:58:25.071Z,20.56
2022-08-31T07:01:13.760Z,20.62
2022-08-31T07:03:50.371Z,20.75
2022-08-31T07:06:22.443Z,20.93
2022-08-31T07:08:56.631Z,21.15
2022-08-31T07:11:32.912Z,21.54
2022-08-31T07:14:04.574Z,22.05
2022-08-31T07:16:36.372Z,22.38
2022-08-31T07:19:06.646Z,22.55
2022-08-31T07:21:46.190Z,22.60
2022-08-31T07:24:20.869Z,22.57
2022-08-31T07:26:57.682Z,22.51
2022-08-31T07:29:34.423Z,22.46
2022-08-31T07:32:03.869Z,22.51
2022-08-31T07:34:33.736Z,22.55
2022-08-31T07:37:18.296Z,22.58
2022-08-31T07:40:08.259Z,22.60
2022-08-31T07:42:44.607Z,22.69
2022-08-31T07:45:27.951Z,22.82
2022-08-31T07:48:00.405Z,22.85
2022-08-31T07:50:33.008Z,22.81
2022-08-31T07:53:07.456Z,22.80
2022-08-31T07:55:47.991Z,22.82
2022-08-31T07:58:35.619Z,22.89
2022-08-31T08:01:06.502Z,23.04
2022-08-31T08:03:36.174Z,23.30
2022-08-31T08:06:25.800Z,23.60
2022-08-31T08:09:24.028Z,23.95
2022-08-31T08:11:46.813Z,24.24
2022-08-31T08:14:38.560Z,24.51
2022-08-31T08:17:25.545Z,24.61
2022-08-31T08:19:56.391Z,24.80
2022-08-31T08:22:50.968Z,25.19
2022-08-31T08:25:13.216Z,25.52
2022-08-31T08:27:51.895Z,25.83
2022-08-31T08:30:25.603Z,26.05
2022-08-31T08:32:55.046Z,25.96
2022-08-31T08:35:26.858Z,25.75
2022-08-31T08:37:59.001Z,25.42
2022-08-31T08:40:43.970Z,25.23
2022-08-31T08:43:16.202Z,25.25
2022-08-31T08:45:49.632Z,25.43
2022-08-31T08:48:22.336Z,25.69
2022-08-31T08:50:53.926Z,25.80
2022-08-31T08:53:28.756Z,25.76
2022-08-31T08:56:17.254Z,25.55
2022-08-31T08:58:35.657Z,25.12
2022-08-31T09:01:07.754Z,24.88
2022-08-31T09:03:46.518Z,24.70
2022-08-31T09:06:48.307Z,24.65
2022-08-31T09:09:35.097Z,24.70
2022-08-31T09:12:29.326Z,24.66
2022-08-31T09:15:14.793Z,24.52
2022-08-31T09:18:05.556Z,24.47
2022-08-31T09:20:35.324Z,24.52
2022-08-31T09:23:06.907Z,24.56
2022-08-31T09:25:50.162Z,24.61
2022-08-31T09:28:44.382Z,24.60
2022-08-31T09:31:38.073Z,24.53
2022-08-31T09:34:12.374Z,24.53
2022-08-31T09:36:42.687Z,24.44
2022-08-31T09:39:21.602Z,24.47
2022-08-31T09:41:50.868Z,24.46
2022-08-31T09:44:34.038Z,24.44
2022-08-31T09:47:06.860Z,24.51
2022-08-31T09:49:38.344Z,24.54
2022-08-31T09:52:24.027Z,24.52
2022-08-31T09:55:17.882Z,24.49
2022-08-31T09:58:07.848Z,24.35
2022-08-31T10:00:42.078Z,24.30
2022-08-31T10:03:25.868Z,24.33
2022-08-31T10:05:57.575Z,24.30
2022-08-31T10:08:50.263Z,24.28
2022-08-31T10:11:23.453Z,24.24
2022-08-31T10:14:04.873Z,24.23
2022-08-31T10:16:43.211Z,24.24
2022-08-31T10:19:28.429Z,24.27
2022-08-31T10:22:05.003Z,24.31
2022-08-31T10:24:48.815Z,24.38
2022-08-31T10:27:28.487Z,24.42
2022-08-31T10:30:06.861Z,24.50
2022-08-31T10:32:45.578Z,24.57
2022-08-31T10:35:55.920Z,24.63
2022-08-31T10:38:37.416Z,24.66
2022-08-31T10:41:22.013Z,24.69
2022-08-31T10:44:19.894Z,24.65
2022-08-31T10:46:53.980Z,24.63
2022-08-31T10:49:26.132Z,24.60
2022-08-31T10:52:09.443Z,24.58
2022-08-31T10:54:48.343Z,24.60
2022-08-31T10:57:43.451Z,24.66
2022-08-31T11:00:42.853Z,24.72
2022-08-31T11:03:27.848Z,24.76
2022-08-31T11:06:19.792Z,24.79
2022-08-31T11:08:58.865Z,24.70
2022-08-31T11:11:46.193Z,24.51
2022-08-31T11:14:53.612Z,24.39
2022-08-31T11:17:52.058Z,24.27
2022-08-31T11:21:06.521Z,24.20
2022-08-31T11:23:56.226Z,24.18
2022-08-31T11:26:51.401Z,24.21
2022-08-31T11:29:46.893Z,24.23
2022-08-31T11:32:39.767Z,24.17
2022-08-31T11:35:10.986Z,24.18
2022-08-31T11:37:52.479Z,24.26
2022-08-31T11:40:46.690Z,24.25
2022-08-31T11:43:44.090Z,24.22
2022-08-31T11:46:28.503Z,24.24
2022-08-31T11:48:59.589Z,24.23
2022-08-31T11:51:45.867Z,24.22
2022-08-31T11:54:26.608Z,24.13
2022-08-31T11:56:57.257Z,24.09
2022-08-31T11:59:36.600Z,24.14
2022-08-31T12:02:26.846Z,24.19
2022-08-31T12:04:58.597Z,24.23
2022-08-31T12:07:42.428Z,24.26
2022-08-31T12:10:34.348Z,24.28
2022-08-31T12:13:31.048Z,24.31
2022-08-31T12:16:06.637Z,24.33
2022-08-31T12:19:44.761Z,24.36
2022-08-31T12:23:10.488Z,24.36
2022-08-31T12:26:20.046Z,24.29
2022-08-31T12:29:28.186Z,24.22
2022-08-31T12:32:35.708Z,24.23
2022-08-31T12:35:24.864Z,24.29
2022-08-31T12:38:10.200Z,24.31
2022-08-31T12:40:47.326Z,24.28
2022-08-31T12:43:40.588Z,24.29
2022-08-31T12:46:59.601Z,24.31
2022-08-31T12:49:47.088Z,24.29
2022-08-31T12:52:37.159Z,24.29
2022-08-31T12:55:38.518Z,24.29
2022-08-31T12:58:41.244Z,24.29
2022-08-31T13:01:17.291Z,24.27
2022-08-31T13:03:54.246Z,24.27
2022-08-31T13:06:32.382Z,24.26
2022-08-31T13:09:04.103Z,24.26
2022-08-31T13:11:42.102Z,24.26
2022-08-31T13:14:27.362Z,24.27
2022-08-31T13:17:16.200Z,24.31
2022-08-31T13:19:57.319Z,24.31
2022-08-31T13:22:33.195Z,24.32
2022-08-31T13:25:21.835Z,24.29
2022-08-31T13:27:52.557Z,24.27
2022-08-31T13:30:25.502Z,24.23
2022-08-31T13:32:55.108Z,24.17
2022-08-31T13:35:28.251Z,24.17
2022-08-31T13:38:05.946Z,24.17
2022-08-31T13:40:39.261Z,24.16
2022-08-31T13:43:11.250Z,24.18
2022-08-31T13:45:52.519Z,24.19
2022-08-31T13:48:34.775Z,24.20
2022-08-31T13:51:20.161Z,24.17
2022-08-31T13:54:04.640Z,24.14
2022-08-31T13:56:59.176Z,24.15
2022-08-31T13:59:33.492Z,24.15
2022-08-31T14:02:19.607Z,24.13
2022-08-31T14:04:57.815Z,24.10
2022-08-31T14:07:44.014Z,24.08
2022-08-31T14:10:19.173Z,24.09
2022-08-31T14:12:57.105Z,24.03
2022-08-31T14:15:56.172Z,23.97
2022-08-31T14:18:29.959Z,23.94
2022-08-31T14:21:20.934Z,23.91
2022-08-31T14:24:03.976Z,23.92
2022-08-31T14:26:37.694Z,23.92
2022-08-31T14:29:12.176Z,23.93
2022-08-31T14:31:52.730Z,23.95
2022-08-31T14:34:32.655Z,23.97
2022-08-31T14:37:07.518Z,23.97
2022-08-31T14:39:47.265Z,23.98
2022-08-31T14:42:36.969Z,24.00
2022-08-31T14:45:18.266Z,24.01
2022-08-31T14:47:52.117Z,24.00
2022-08-31T14:50:25.247Z,24.01
2022-08-31T14:52:57.526Z,24.06
2022-08-31T14:55:31.118Z,24.07
2022-08-31T14:58:07.079Z,24.03
2022-08-31T15:00:41.650Z,24.02
2022-08-31T15:03:17.159Z,23.97
2022-08-31T15:05:48.811Z,23.94
2022-08-31T15:08:20.153Z,23.90
2022-08-31T15:10:54.401Z,23.87
2022-08-31T15:13:26.811Z,23.87
2022-08-31T15:15:59.802Z,23.86
2022-08-31T15:18:33.410Z,23.86
2022-08-31T15:21:05.434Z,23.86
2022-08-31T15:23:36.939Z,23.88
2022-08-31T15:26:11.021Z,23.85
2022-08-31T15:28:42.871Z,23.80
2022-08-31T15:31:24.849Z,23.80
2022-08-31T15:33:57.630Z,23.83
2022-08-31T15:36:28.136Z,23.82
2022-08-31T15:38:59.874Z,23.76
2022-08-31T15:41:37.641Z,23.69
2022-08-31T15:44:11.940Z,23.66
2022-08-31T15:47:02.173Z,23.64
2022-08-31T15:49:33.652Z,23.62
2022-08-31T15:52:06.836Z,23.57
2022-08-31T15:54:38.846Z,23.53
2022-08-31T15:57:08.254Z,23.47
2022-08-31T15:59:42.807Z,23.39
2022-08-31T16:02:13.729Z,23.31
2022-08-31T16:04:43.204Z,23.25
2022-08-31T16:07:13.361Z,23.21
2022-08-31T16:09:47.322Z,23.19
2022-08-31T16:12:18.441Z,23.15
2022-08-31T16:14:51.270Z,23.15
2022-08-31T16:17:21.131Z,23.09
2022-08-31T16:19:51.258Z,23.03
2022-08-31T16:22:22.329Z,22.96
2022-08-31T16:24:54.664Z,22.92
2022-08-31T16:27:24.650Z,22.85
2022-08-31T16:29:54.127Z,22.80
2022-08-31T16:32:25.288Z,22.74
2022-08-31T16:34:54.723Z,22.69
2022-08-31T16:37:24.929Z,22.65
2022-08-31T16:39:55.224Z,22.61
2022-08-31T16:42:25.210Z,22.57
2022-08-31T16:44:59.735Z,22.55
2022-08-31T16:47:27.136Z,22.53
2022-08-31T16:49:59.220Z,22.51
2022-08-31T16:52:30.780Z,22.47
2022-08-31T16:54:59.891Z,22.45
2022-08-31T16:57:30.039Z,22.44
2022-08-31T17:00:00.684Z,22.41
2022-08-31T17:02:35.146Z,22.40
2022-08-31T17:05:05.758Z,22.37
2022-08-31T17:07:36.512Z,22.36
2022-08-31T17:10:07.461Z,22.31
2022-08-31T17:12:40.959Z,22.26
2022-08-31T17:15:13.263Z,22.22
2022-08-31T17:17:44.981Z,22.19
2022-08-31T17:20:16.060Z,22.13
2022-08-31T17:22:48.415Z,22.10
2022-08-31T17:25:18.562Z,22.07
2022-08-31T17:27:51.199Z,22.04
2022-08-31T17:30:23.244Z,22.00
2022-08-31T17:32:54.357Z,21.94
2022-08-31T17:35:25.897Z,21.89
2022-08-31T17:37:56.226Z,21.83
2022-08-31T17:42:59.951Z,21.72
2022-08-31T17:45:31.885Z,21.68
2022-08-31T17:48:01.530Z,21.63
2022-08-31T17:50:32.486Z,21.59
2022-08-31T17:53:03.622Z,21.55
2022-08-31T17:55:34.502Z,21.52
2022-08-31T17:58:06.910Z,21.48
2022-08-31T18:00:36.908Z,21.48
2022-08-31T18:03:07.478Z,21.47
2022-08-31T18:05:41.907Z,21.44
2022-08-31T18:08:10.174Z,21.41
2022-08-31T18:10:41.433Z,21.42
2022-08-31T18:13:11.565Z,21.41
2022-08-31T18:15:41.520Z,21.41
2022-08-31T18:18:12.011Z,21.40
2022-08-31T18:20:41.684Z,21.37
2022-08-31T18:23:11.701Z,21.30
2022-08-31T18:25:42.953Z,21.29
2022-08-31T18:28:12.974Z,21.26
2022-08-31T18:30:42.642Z,21.24
2022-08-31T18:33:15.111Z,21.19
2022-08-31T18:35:50.514Z,21.12
2022-08-31T18:38:22.041Z,21.07
2022-08-31T18:41:10.323Z,21.04
2022-08-31T18:43:59.427Z,21.02
2022-08-31T18:46:28.727Z,20.99
2022-08-31T18:49:11.895Z,20.97
2022-08-31T18:51:31.050Z,20.94
2022-08-31T18:54:00.744Z,20.91
2022-08-31T18:56:29.847Z,20.91
2022-08-31T18:59:00.099Z,20.88
2022-08-31T19:01:33.482Z,20.85
2022-08-31T19:04:03.896Z,20.85
2022-08-31T19:06:34.105Z,20.82
2022-08-31T19:09:04.086Z,20.78
2022-08-31T19:11:40.861Z,20.76
2022-08-31T19:14:10.050Z,20.74
2022-08-31T19:16:39.687Z,20.74
2022-08-31T19:19:10.176Z,20.74
2022-08-31T19:21:39.431Z,20.72
2022-08-31T19:24:13.436Z,20.70
2022-08-31T19:26:51.743Z,20.69
2022-08-31T19:29:26.386Z,20.68
2022-08-31T19:31:57.017Z,20.64
2022-08-31T19:34:29.422Z,20.61
2022-08-31T19:36:59.940Z,20.55
2022-08-31T19:39:31.496Z,20.52
2022-08-31T19:42:07.698Z,20.49
2022-08-31T19:44:54.936Z,20.46
2022-08-31T19:47:24.434Z,20.41
2022-08-31T19:49:43.267Z,20.36
2022-08-31T19:52:12.433Z,20.34
2022-08-31T19:54:41.914Z,20.30
2022-08-31T19:57:13.649Z,20.25
2022-08-31T19:59:44.775Z,20.20
2022-08-31T20:02:14.099Z,20.17
2022-08-31T20:04:45.578Z,20.14
2022-08-31T20:07:18.770Z,20.12
2022-08-31T20:09:50.100Z,20.09
2022-08-31T20:12:19.224Z,20.08
2022-08-31T20:14:49.354Z,20.05
2022-08-31T20:17:20.084Z,20.03
2022-08-31T20:19:49.286Z,20.00
2022-08-31T20:22:28.121Z,20.01
2022-08-31T20:24:55.369Z,20.00
2022-08-31T20:27:24.429Z,20.00
2022-08-31T20:29:54.529Z,19.99
2022-08-31T20:32:25.439Z,19.98
2022-08-31T20:34:59.710Z,19.97
2022-08-31T20:37:29.516Z,19.97
2022-08-31T20:39:59.650Z,19.98
2022-08-31T20:42:29.558Z,19.99
2022-08-31T20:44:59.137Z,20.00
2022-08-31T20:47:47.718Z,20.01
2022-08-31T20:50:17.329Z,20.00
2022-08-31T20:52:46.575Z,19.99
2022-08-31T20:55:16.675Z,19.98
2022-08-31T20:57:46.697Z,19.97
2022-08-31T21:00:18.596Z,19.96
2022-08-31T21:02:49.871Z,19.97
2022-08-31T21:05:38.342Z,19.95
2022-08-31T21:07:52.369Z,19.94
2022-08-31T21:10:36.230Z,19.93
2022-08-31T21:13:00.190Z,19.90
2022-08-31T21:15:30.264Z,19.88
2022-08-31T21:18:02.259Z,19.85
2022-08-31T21:20:33.536Z,19.82
2022-08-31T21:23:02.758Z,19.81
2022-08-31T21:25:33.442Z,19.80
2022-08-31T21:28:03.964Z,19.78
2022-08-31T21:30:34.234Z,19.76
2022-08-31T21:33:05.248Z,19.71
2022-08-31T21:35:34.874Z,19.69
2022-08-31T21:38:06.827Z,19.64
2022-08-31T21:40:36.773Z,19.59
2022-08-31T21:43:07.314Z,19.51
2022-08-31T21:45:37.184Z,19.43
2022-08-31T21:48:07.463Z,19.37
2022-08-31T21:50:37.929Z,19.32
2022-08-31T21:53:08.399Z,19.27
2022-08-31T21:55:38.762Z,19.23
2022-08-31T21:58:07.884Z,19.16
2022-08-31T22:00:38.736Z,19.10
2022-08-31T22:03:08.997Z,19.05
2022-08-31T22:05:44.784Z,19.03
2022-08-31T22:08:14.907Z,18.99
2022-08-31T22:10:44.605Z,18.95
2022-08-31T22:13:16.901Z,18.91
2022-08-31T22:15:46.823Z,18.90
2022-08-31T22:18:59.109Z,18.84
2022-08-31T22:20:49.689Z,18.78
2022-08-31T22:23:19.564Z,18.75
2022-08-31T22:25:49.029Z,18.71
2022-08-31T22:28:20.021Z,18.68
2022-08-31T22:30:50.661Z,18.65
2022-08-31T22:33:20.985Z,18.65
2022-08-31T22:35:51.363Z,18.63
2022-08-31T22:38:21.749Z,18.60
2022-08-31T22:40:53.191Z,18.56
2022-08-31T22:43:22.623Z,18.52
2022-08-31T22:45:51.784Z,18.47
2022-08-31T22:48:22.308Z,18.41
2022-08-31T22:50:51.473Z,18.39
2022-08-31T22:53:21.664Z,18.36
2022-08-31T22:55:52.853Z,18.33
2022-08-31T22:58:22.190Z,18.29
2022-08-31T23:00:51.698Z,18.25
2022-08-31T23:03:22.192Z,18.25
2022-08-31T23:05:53.781Z,18.23
2022-08-31T23:08:23.772Z,18.15
2022-08-31T23:10:54.207Z,18.13
2022-08-31T23:13:25.177Z,18.13
2022-08-31T23:15:54.269Z,18.12
2022-08-31T23:18:23.561Z,18.10
2022-08-31T23:20:54.641Z,18.08
2022-08-31T23:23:24.238Z,18.09
2022-08-31T23:25:56.619Z,18.06
2022-08-31T23:28:26.098Z,18.06
2022-08-31T23:30:55.418Z,18.06
2022-08-31T23:33:26.548Z,18.08
2022-08-31T23:35:56.314Z,18.05
2022-08-31T23:38:27.345Z,18.03
2022-08-31T23:40:57.876Z,18.04
2022-08-31T23:43:28.677Z,18.03
2022-08-31T23:46:01.837Z,18.03
2022-08-31T23:48:31.352Z,18.02
2022-08-31T23:51:02.066Z,18.04
2022-08-31T23:53:33.086Z,18.04
2022-08-31T23:56:10.747Z,18.03
2022-08-31T23:58:39.918Z,18.01
